Time;durP1;ratioP1;P1;durP2;ratioP2;P2;SDS_P1;SDS_P2;PMS_P1;PMS_P2;Temp;Humidity;BMP_temperature;BMP_pressure;BME280_temperature;BME280_humidity;BME280_pressure;Samples;Min_cycle;Max_cycle;Signal;HPM_P1;HPM_P2
2022/10/19 00:01:35;;;;;;;4.60;2.13;;;19.40;99.90;;;;;;4145368;28;20217;-73
2022/10/19 00:03:38;;;;;;;4.45;2.15;;;19.50;99.90;;;;;;4139993;28;20634;-73
2022/10/19 00:05:40;;;;;;;2.28;1.80;;;19.40;99.90;;;;;;4145271;28;20264;-74
2022/10/19 00:07:43;;;;;;;3.78;2.03;;;19.40;99.90;;;;;;4143708;28;20947;-73
2022/10/19 00:09:45;;;;;;;3.65;1.98;;;19.40;99.90;;;;;;4146469;28;20543;-73
2022/10/19 00:11:50;;;;;;;3.97;2.28;;;19.40;99.90;;;;;;4146228;28;20217;-74
2022/10/19 00:13:52;;;;;;;3.05;2.03;;;19.40;99.90;;;;;;4142753;28;20217;-74
2022/10/19 00:15:55;;;;;;;3.78;2.03;;;19.40;99.90;;;;;;4146450;28;20217;-75
2022/10/19 00:17:58;;;;;;;5.10;2.22;;;19.40;99.90;;;;;;4145984;28;20217;-74
2022/10/19 00:20:01;;;;;;;5.43;2.10;;;19.40;99.90;;;;;;4142237;28;20216;-74
2022/10/19 00:22:03;;;;;;;3.08;2.20;;;19.40;99.90;;;;;;4145863;28;20221;-74
2022/10/19 00:24:06;;;;;;;3.58;1.85;;;19.40;99.90;;;;;;4146338;28;20220;-74
2022/10/19 00:26:08;;;;;;;3.90;2.08;;;19.40;99.90;;;;;;4140028;28;20240;-75
2022/10/19 00:28:11;;;;;;;3.88;2.33;;;19.40;99.90;;;;;;4145690;28;20221;-74
2022/10/19 00:30:13;;;;;;;4.53;2.05;;;19.40;99.90;;;;;;4145812;28;20282;-74
2022/10/19 00:32:15;;;;;;;3.35;2.05;;;19.40;99.90;;;;;;4141797;28;20217;-74
2022/10/19 00:34:19;;;;;;;3.50;2.20;;;19.30;99.90;;;;;;4142991;28;20225;-74
2022/10/19 00:36:23;;;;;;;4.32;2.30;;;19.40;99.90;;;;;;4145161;28;20287;-74
2022/10/19 00:38:25;;;;;;;4.13;2.33;;;19.40;99.90;;;;;;4140343;28;20952;-74
2022/10/19 00:40:27;;;;;;;4.78;2.33;;;19.40;99.90;;;;;;4145658;28;20634;-74
2022/10/19 00:42:30;;;;;;;3.70;1.80;;;19.40;99.90;;;;;;4145473;28;20615;-75
2022/10/19 00:45:03;;;;;;;2.85;2.00;;;19.30;99.90;;;;;;4143179;28;20209;-75
2022/10/19 00:47:07;;;;;;;4.20;1.92;;;19.30;99.90;;;;;;4145490;28;20221;-75
2022/10/19 00:49:13;;;;;;;3.17;2.13;;;19.40;99.90;;;;;;4144127;28;20267;-75
2022/10/19 00:51:17;;;;;;;5.45;2.35;;;19.30;99.90;;;;;;4148943;28;20646;-75
2022/10/19 00:53:20;;;;;;;6.47;2.28;;;19.30;99.90;;;;;;4145870;28;20553;-75
2022/10/19 00:55:22;;;;;;;5.60;2.28;;;19.30;99.90;;;;;;4141547;28;20213;-75
2022/10/19 00:57:28;;;;;;;3.72;1.90;;;19.30;99.90;;;;;;4144083;28;20739;-75
2022/10/19 00:59:31;;;;;;;5.03;2.00;;;19.30;99.90;;;;;;4144960;28;20311;-75
2022/10/19 01:01:34;;;;;;;4.82;2.30;;;19.30;99.90;;;;;;4138988;28;20268;-75
2022/10/19 01:03:38;;;;;;;4.15;1.98;;;19.30;99.90;;;;;;4143510;28;20228;-75
2022/10/19 01:05:41;;;;;;;3.08;2.00;;;19.30;99.90;;;;;;4145201;28;20225;-75
2022/10/19 01:07:45;;;;;;;3.47;1.98;;;19.30;99.90;;;;;;4144122;28;20220;-75
2022/10/19 01:09:47;;;;;;;2.75;1.88;;;19.30;99.90;;;;;;4147436;28;20221;-75
2022/10/19 01:11:57;;;;;;;4.72;2.20;;;19.30;99.90;;;;;;4144067;28;20660;-75
2022/10/19 01:14:13;;;;;;;3.50;2.03;;;19.30;99.90;;;;;;4141949;28;20259;-75
2022/10/19 01:16:20;;;;;;;3.60;2.30;;;19.30;99.90;;;;;;4146564;28;20264;-75
2022/10/19 01:18:30;;;;;;;2.45;1.90;;;19.30;99.90;;;;;;4142117;28;20214;-75
2022/10/19 01:21:12;;;;;;;5.22;2.05;;;19.30;99.90;;;;;;4146164;28;20221;-75
2022/10/19 01:23:44;;;;;;;4.22;2.05;;;19.30;99.90;;;;;;4145911;28;20275;-75
2022/10/19 01:25:55;;;;;;;3.63;1.70;;;19.30;99.90;;;;;;4137018;28;20271;-75
2022/10/19 01:28:12;;;;;;;4.32;2.10;;;19.30;99.90;;;;;;4145838;28;20267;-74
2022/10/19 01:30:27;;;;;;;3.33;2.08;;;19.30;99.90;;;;;;4141251;28;20217;-75
2022/10/19 01:32:41;;;;;;;4.15;2.08;;;19.30;99.90;;;;;;4142828;28;20271;-75
2022/10/19 01:34:51;;;;;;;4.47;2.20;;;19.20;99.90;;;;;;4146494;28;20224;-75
2022/10/19 01:37:00;;;;;;;2.65;2.00;;;19.30;99.90;;;;;;4135251;28;20245;-75
2022/10/19 01:39:08;;;;;;;3.13;2.00;;;19.30;99.90;;;;;;4143719;28;20216;-75
2022/10/19 01:41:17;;;;;;;3.90;2.03;;;19.20;99.90;;;;;;4145748;28;20220;-75
2022/10/19 01:43:25;;;;;;;4.45;2.30;;;19.30;99.90;;;;;;4143326;28;20217;-75
2022/10/19 01:45:36;;;;;;;6.47;2.17;;;19.30;99.90;;;;;;4144151;28;20217;-75
2022/10/19 01:47:44;;;;;;;3.35;2.28;;;19.20;99.90;;;;;;4132724;28;20212;-75
2022/10/19 01:49:51;;;;;;;3.92;1.80;;;19.20;99.90;;;;;;4138808;28;20221;-75
2022/10/19 01:51:57;;;;;;;3.65;1.70;;;19.20;99.90;;;;;;4140528;28;20257;-75
2022/10/19 01:54:05;;;;;;;2.83;2.05;;;19.20;99.90;;;;;;4140595;28;20225;-75
2022/10/19 01:56:09;;;;;;;3.67;2.10;;;19.20;99.90;;;;;;4146455;28;20283;-75
2022/10/19 01:58:16;;;;;;;2.85;2.17;;;19.20;99.90;;;;;;4143524;28;20232;-75
2022/10/19 02:00:22;;;;;;;4.10;2.30;;;19.20;99.90;;;;;;4141290;28;20290;-74
2022/10/19 02:02:27;;;;;;;2.92;2.05;;;19.20;99.90;;;;;;4137040;28;20552;-75
2022/10/19 02:04:31;;;;;;;3.08;1.83;;;19.20;99.90;;;;;;4143290;28;20268;-75
2022/10/19 02:06:33;;;;;;;3.63;1.83;;;19.20;99.90;;;;;;4144108;28;20225;-75
2022/10/19 02:08:41;;;;;;;3.38;2.03;;;19.20;99.90;;;;;;4145808;28;20218;-75
2022/10/19 02:10:45;;;;;;;3.15;2.05;;;19.20;99.90;;;;;;4140951;28;21075;-75
2022/10/19 02:12:48;;;;;;;3.70;1.90;;;19.20;99.90;;;;;;4145525;28;20639;-75
2022/10/19 02:14:56;;;;;;;3.13;2.00;;;19.20;99.90;;;;;;4144483;28;20271;-75
2022/10/19 02:17:03;;;;;;;2.47;1.92;;;19.20;99.90;;;;;;4140490;28;20220;-75
2022/10/19 02:19:08;;;;;;;2.80;1.77;;;19.20;99.90;;;;;;4143599;28;20225;-75
2022/10/19 02:21:11;;;;;;;3.17;2.00;;;19.10;99.90;;;;;;4145587;28;20221;-75
2022/10/19 02:23:15;;;;;;;3.15;1.90;;;19.10;99.90;;;;;;4140083;28;20614;-74
2022/10/19 02:25:18;;;;;;;3.78;2.20;;;19.20;99.90;;;;;;4145738;28;20283;-75
2022/10/19 02:27:21;;;;;;;3.03;1.80;;;19.20;99.90;;;;;;4145377;28;20217;-75
2022/10/19 02:29:23;;;;;;;3.33;1.92;;;19.20;99.90;;;;;;4141155;28;20263;-75
2022/10/19 02:31:26;;;;;;;3.75;2.15;;;19.10;99.90;;;;;;4138730;28;20351;-75
2022/10/19 02:33:29;;;;;;;3.42;1.92;;;19.20;99.90;;;;;;4140675;28;20229;-75
2022/10/19 02:35:33;;;;;;;3.58;1.80;;;19.10;99.90;;;;;;4148158;28;20709;-75
2022/10/19 02:37:35;;;;;;;2.85;1.73;;;19.10;99.90;;;;;;4152442;28;20283;-75
2022/10/19 02:39:38;;;;;;;3.33;1.77;;;19.10;99.90;;;;;;4140536;28;20307;-75
2022/10/19 02:41:47;;;;;;;3.97;1.98;;;19.10;99.90;;;;;;4145509;28;20225;-75
2022/10/19 02:43:54;;;;;;;4.90;2.05;;;19.10;99.90;;;;;;4143458;28;20649;-75
2022/10/19 02:46:02;;;;;;;4.55;2.25;;;19.10;99.90;;;;;;4141225;28;20634;-75
2022/10/19 02:48:08;;;;;;;4.47;1.95;;;19.10;99.90;;;;;;4150863;28;20216;-75
2022/10/19 02:50:11;;;;;;;6.13;2.42;;;19.10;99.90;;;;;;4144404;28;20716;-75
2022/10/19 02:52:15;;;;;;;3.20;2.10;;;19.10;99.90;;;;;;4140732;28;20229;-75
2022/10/19 02:54:17;;;;;;;4.03;1.85;;;19.10;99.90;;;;;;4143769;28;20221;-75
2022/10/19 02:56:19;;;;;;;4.55;2.10;;;19.10;99.90;;;;;;4142830;28;20271;-75
2022/10/19 02:58:22;;;;;;;3.75;2.22;;;19.10;99.90;;;;;;4144615;28;20638;-75
2022/10/19 03:00:24;;;;;;;3.95;2.00;;;19.10;99.90;;;;;;4151644;28;20706;-75
2022/10/19 03:02:26;;;;;;;2.97;2.00;;;19.10;99.90;;;;;;4143716;28;20218;-75
2022/10/19 03:04:29;;;;;;;4.18;2.00;;;19.10;99.90;;;;;;4152466;28;20235;-75
2022/10/19 03:06:31;;;;;;;3.30;1.98;;;19.10;99.90;;;;;;4146738;28;20268;-75
2022/10/19 03:08:35;;;;;;;4.57;2.28;;;19.10;99.90;;;;;;4143834;28;20293;-75
2022/10/19 03:10:37;;;;;;;3.50;1.90;;;19.10;99.90;;;;;;4146372;28;20217;-75
2022/10/19 03:12:39;;;;;;;2.67;1.75;;;19.10;99.90;;;;;;4146932;28;20237;-75
2022/10/19 03:14:41;;;;;;;2.88;1.70;;;19.10;99.90;;;;;;4142838;28;20275;-75
2022/10/19 03:16:44;;;;;;;3.33;2.08;;;19.10;99.90;;;;;;4162026;28;20216;-75
2022/10/19 03:18:48;;;;;;;4.45;2.25;;;19.10;99.90;;;;;;4150299;28;20245;-75
2022/10/19 03:20:50;;;;;;;4.00;2.03;;;19.10;99.90;;;;;;4142514;28;20270;-75
2022/10/19 03:22:52;;;;;;;3.65;1.88;;;19.10;99.90;;;;;;4147367;28;20217;-75
2022/10/19 03:24:56;;;;;;;5.50;2.38;;;19.10;99.90;;;;;;4150831;28;20621;-75
2022/10/19 03:26:58;;;;;;;3.95;1.85;;;19.00;99.90;;;;;;4144477;28;20233;-75
2022/10/19 03:29:01;;;;;;;3.08;2.00;;;19.10;99.90;;;;;;4146133;28;20283;-75
2022/10/19 03:31:03;;;;;;;5.53;1.98;;;19.10;99.90;;;;;;4146700;28;20213;-75
2022/10/19 03:33:05;;;;;;;4.15;2.00;;;19.00;99.90;;;;;;4153295;28;20239;-75
2022/10/19 03:35:08;;;;;;;4.35;1.90;;;19.00;99.90;;;;;;4148877;28;20221;-75
2022/10/19 03:37:12;;;;;;;3.65;2.38;;;19.00;99.90;;;;;;4144854;28;20287;-73
2022/10/19 03:39:16;;;;;;;3.03;1.83;;;19.00;99.90;;;;;;4146507;28;20295;-73
2022/10/19 03:41:20;;;;;;;2.65;2.03;;;19.00;99.90;;;;;;4141327;28;20260;-73
2022/10/19 03:43:22;;;;;;;3.08;1.90;;;19.00;99.90;;;;;;4142357;28;20217;-73
2022/10/19 03:45:24;;;;;;;3.20;1.95;;;19.00;99.90;;;;;;4143237;28;20217;-73
2022/10/19 03:47:27;;;;;;;3.08;2.00;;;19.00;99.90;;;;;;4146264;28;20584;-73
2022/10/19 03:49:29;;;;;;;4.40;2.00;;;19.00;99.90;;;;;;4141866;28;20221;-73
2022/10/19 03:51:32;;;;;;;2.97;1.73;;;19.00;99.90;;;;;;4146308;28;20275;-75
2022/10/19 03:53:35;;;;;;;4.00;1.90;;;19.00;99.90;;;;;;4146229;28;20213;-73
2022/10/19 03:55:37;;;;;;;3.10;2.13;;;19.00;99.90;;;;;;4142576;28;20287;-73
2022/10/19 03:57:41;;;;;;;2.85;2.03;;;19.00;99.90;;;;;;4144940;28;20272;-73
2022/10/19 03:59:43;;;;;;;3.30;1.80;;;19.00;99.90;;;;;;4144018;28;20307;-73
2022/10/19 04:01:46;;;;;;;2.70;1.90;;;19.00;99.90;;;;;;4146388;28;20982;-73
2022/10/19 04:03:52;;;;;;;4.45;2.33;;;19.00;99.90;;;;;;4146661;28;20354;-73
2022/10/19 04:06:02;;;;;;;4.28;1.88;;;19.00;99.90;;;;;;4145790;28;20217;-73
2022/10/19 04:08:05;;;;;;;4.78;1.98;;;18.90;99.90;;;;;;4143558;28;20271;-73
2022/10/19 04:10:08;;;;;;;4.22;1.90;;;19.00;99.90;;;;;;4145996;28;20250;-73
2022/10/19 04:12:10;;;;;;;2.60;2.08;;;19.00;99.90;;;;;;4142148;28;20666;-73
2022/10/19 04:14:16;;;;;;;2.72;1.65;;;19.00;99.90;;;;;;4144548;28;20283;-73
2022/10/19 04:16:19;;;;;;;2.83;1.67;;;19.00;99.90;;;;;;4145719;28;20228;-73
2022/10/19 04:18:21;;;;;;;3.97;2.00;;;19.00;99.90;;;;;;4141164;28;20287;-72
2022/10/19 04:20:24;;;;;;;3.20;1.67;;;18.90;99.90;;;;;;4145858;28;20268;-73
2022/10/19 04:22:26;;;;;;;3.15;1.88;;;18.90;99.90;;;;;;4145977;28;20221;-73
2022/10/19 04:24:28;;;;;;;2.58;2.00;;;18.90;99.90;;;;;;4150455;28;20279;-73
2022/10/19 04:26:32;;;;;;;3.50;1.80;;;19.00;99.90;;;;;;4150281;28;20221;-73
2022/10/19 04:28:34;;;;;;;2.38;1.55;;;18.90;99.90;;;;;;4145664;28;20226;-73
2022/10/19 04:30:38;;;;;;;4.18;1.88;;;18.90;99.90;;;;;;4142477;28;20267;-73
2022/10/19 04:32:40;;;;;;;5.35;2.03;;;18.90;99.90;;;;;;4145799;28;20703;-73
2022/10/19 04:34:42;;;;;;;3.80;1.92;;;18.90;99.90;;;;;;4145143;28;20244;-73
2022/10/19 04:36:45;;;;;;;3.45;1.90;;;18.90;99.90;;;;;;4144465;28;20356;-73
2022/10/19 04:38:47;;;;;;;4.78;2.15;;;18.90;99.90;;;;;;4145389;28;20314;-73
2022/10/19 04:40:49;;;;;;;3.38;2.15;;;18.90;99.90;;;;;;4145709;28;20229;-73
2022/10/19 04:42:52;;;;;;;3.22;1.58;;;18.90;99.90;;;;;;4141603;28;20221;-73
2022/10/19 04:44:54;;;;;;;2.50;1.58;;;18.90;99.90;;;;;;4145607;28;20228;-73
2022/10/19 04:46:57;;;;;;;4.03;1.90;;;18.90;99.90;;;;;;4144412;28;20225;-73
2022/10/19 04:49:03;;;;;;;4.32;1.80;;;18.90;99.90;;;;;;4146968;28;20235;-73
2022/10/19 04:51:06;;;;;;;3.30;1.85;;;18.90;99.90;;;;;;4147611;28;20221;-73
2022/10/19 04:53:08;;;;;;;2.55;1.92;;;18.90;99.90;;;;;;4145039;28;20217;-73
2022/10/19 04:55:10;;;;;;;2.58;1.70;;;18.90;99.90;;;;;;4143201;28;20221;-72
2022/10/19 04:57:12;;;;;;;2.80;1.55;;;18.90;99.90;;;;;;4144511;28;20739;-73
2022/10/19 04:59:15;;;;;;;3.63;1.75;;;18.90;99.90;;;;;;4143598;28;20660;-73
2022/10/19 05:01:19;;;;;;;2.97;1.60;;;18.90;99.90;;;;;;4143015;28;20783;-73
2022/10/19 05:03:22;;;;;;;2.78;1.83;;;18.90;99.90;;;;;;4150410;28;20262;-73
2022/10/19 05:05:25;;;;;;;3.03;1.60;;;18.90;99.90;;;;;;4146995;28;20229;-73
2022/10/19 05:07:27;;;;;;;3.47;1.75;;;18.90;99.90;;;;;;4152088;28;20224;-73
2022/10/19 05:09:30;;;;;;;3.47;1.88;;;18.90;99.90;;;;;;4144875;28;20238;-73
2022/10/19 05:11:32;;;;;;;4.00;1.80;;;18.90;99.90;;;;;;4141669;28;20213;-73
2022/10/19 05:13:35;;;;;;;3.08;1.58;;;18.90;99.90;;;;;;4143760;28;20232;-73
2022/10/19 05:15:37;;;;;;;3.22;1.83;;;18.90;99.90;;;;;;4144528;28;20310;-73
2022/10/19 05:17:39;;;;;;;4.97;1.75;;;18.90;99.90;;;;;;4141016;28;20218;-72
2022/10/19 05:19:43;;;;;;;2.40;1.70;;;18.90;99.90;;;;;;4142280;28;20237;-73
2022/10/19 05:21:45;;;;;;;3.70;1.90;;;18.90;99.90;;;;;;4144478;28;20293;-73
2022/10/19 05:23:51;;;;;;;2.45;1.60;;;18.90;99.90;;;;;;4140302;28;20213;-73
2022/10/19 05:26:00;;;;;;;2.42;1.75;;;18.90;99.90;;;;;;4148437;28;20221;-73
2022/10/19 05:28:02;;;;;;;3.67;1.88;;;18.80;99.90;;;;;;4141216;28;20719;-73
2022/10/19 05:30:07;;;;;;;2.85;1.70;;;18.90;99.90;;;;;;4139935;28;20963;-73
2022/10/19 05:32:09;;;;;;;2.97;1.60;;;18.80;99.90;;;;;;4144379;28;20229;-73
2022/10/19 05:34:11;;;;;;;2.13;1.63;;;18.80;99.90;;;;;;4142441;28;20224;-73
2022/10/19 05:36:18;;;;;;;2.75;1.60;;;18.80;99.90;;;;;;4139242;28;20205;-73
2022/10/19 05:38:20;;;;;;;3.25;1.60;;;18.80;99.90;;;;;;4143334;28;20271;-73
2022/10/19 05:40:22;;;;;;;1.95;1.40;;;18.80;99.90;;;;;;4143420;28;20237;-73
2022/10/19 05:42:24;;;;;;;4.28;1.67;;;18.80;99.90;;;;;;4139956;28;20263;-73
2022/10/19 05:44:27;;;;;;;3.78;1.63;;;18.80;99.90;;;;;;4142935;28;20217;-73
2022/10/19 05:46:30;;;;;;;5.40;1.90;;;18.80;99.90;;;;;;4143403;28;20299;-73
2022/10/19 05:48:32;;;;;;;2.88;1.83;;;18.80;99.90;;;;;;4146771;28;20216;-73
2022/10/19 05:50:35;;;;;;;4.35;1.77;;;18.80;99.90;;;;;;4144483;28;20696;-73
2022/10/19 05:52:38;;;;;;;3.50;1.83;;;18.80;99.90;;;;;;4141426;28;20662;-73
2022/10/19 05:54:41;;;;;;;2.90;1.50;;;18.80;99.90;;;;;;4140910;28;20263;-73
2022/10/19 05:56:44;;;;;;;3.78;2.05;;;18.80;99.90;;;;;;4144197;28;20233;-73
2022/10/19 05:58:46;;;;;;;2.42;1.73;;;18.80;99.90;;;;;;4142582;28;20240;-73
2022/10/19 06:00:52;;;;;;;3.33;1.40;;;18.80;99.90;;;;;;4141803;28;20248;-73
2022/10/19 06:02:54;;;;;;;2.97;1.50;;;18.80;99.90;;;;;;4144414;28;20228;-73
2022/10/19 06:04:57;;;;;;;2.75;1.77;;;18.80;99.90;;;;;;4142524;28;20217;-73
2022/10/19 06:07:00;;;;;;;3.83;1.92;;;18.80;99.90;;;;;;4143916;28;20229;-73
2022/10/19 06:09:04;;;;;;;4.28;1.90;;;18.80;99.90;;;;;;4142875;28;20606;-73
2022/10/19 06:11:08;;;;;;;3.30;1.70;;;18.80;99.90;;;;;;4140044;28;20267;-73
2022/10/19 06:13:10;;;;;;;3.85;1.92;;;18.80;99.90;;;;;;4145739;28;20225;-73
2022/10/19 06:15:12;;;;;;;4.00;1.80;;;18.80;99.90;;;;;;4144192;28;20228;-73
2022/10/19 06:17:15;;;;;;;4.13;1.80;;;18.80;99.90;;;;;;4141018;28;20221;-73
2022/10/19 06:19:17;;;;;;;4.00;1.98;;;18.80;99.90;;;;;;4144177;28;20225;-73
2022/10/19 06:21:23;;;;;;;3.85;1.90;;;18.80;99.90;;;;;;4144437;28;20263;-73
2022/10/19 06:23:25;;;;;;;3.97;1.60;;;18.70;99.90;;;;;;4142792;28;20221;-73
2022/10/19 06:25:29;;;;;;;2.60;1.65;;;18.80;99.90;;;;;;4143152;28;20213;-73
2022/10/19 06:27:32;;;;;;;3.80;1.80;;;18.80;99.90;;;;;;4143789;28;20615;-73
2022/10/19 06:29:35;;;;;;;2.97;1.67;;;18.80;99.90;;;;;;4141129;28;20213;-73
2022/10/19 06:31:37;;;;;;;3.40;1.95;;;18.70;99.90;;;;;;4143996;28;20209;-73
2022/10/19 06:33:40;;;;;;;4.15;2.08;;;18.70;99.90;;;;;;4142019;28;20229;-73
2022/10/19 06:35:42;;;;;;;2.20;1.60;;;18.70;99.90;;;;;;4144079;28;20673;-73
2022/10/19 06:37:44;;;;;;;3.65;1.80;;;18.80;99.90;;;;;;4145191;28;20686;-73
2022/10/19 06:39:46;;;;;;;3.40;1.90;;;18.70;99.90;;;;;;4144625;28;20520;-73
2022/10/19 06:41:50;;;;;;;2.75;1.60;;;18.80;99.90;;;;;;4147001;28;20720;-74
2022/10/19 06:43:53;;;;;;;2.55;1.58;;;18.70;99.90;;;;;;4145443;28;20220;-73
2022/10/19 06:45:56;;;;;;;2.38;1.52;;;18.80;99.90;;;;;;4146460;28;20275;-73
2022/10/19 06:48:00;;;;;;;4.22;1.85;;;18.70;99.90;;;;;;4148459;28;20271;-73
2022/10/19 06:50:03;;;;;;;3.30;1.70;;;18.70;99.90;;;;;;4147906;28;20217;-73
2022/10/19 06:52:06;;;;;;;2.97;1.88;;;18.70;99.90;;;;;;4141874;28;20221;-73
2022/10/19 06:54:08;;;;;;;2.53;1.50;;;18.70;99.90;;;;;;4147379;28;20216;-73
2022/10/19 06:56:11;;;;;;;6.15;2.83;;;18.80;99.90;;;;;;4145206;28;20287;-74
2022/10/19 06:58:14;;;;;;;8.35;2.75;;;18.70;99.90;;;;;;4142859;28;20275;-76
2022/10/19 07:00:17;;;;;;;4.35;2.15;;;18.60;99.90;;;;;;4143919;28;20233;-78
2022/10/19 07:02:19;;;;;;;4.55;2.30;;;18.70;99.90;;;;;;4142070;28;20213;-72
2022/10/19 07:04:22;;;;;;;7.35;1.60;;;18.50;99.90;;;;;;4144039;28;20217;-72
2022/10/19 07:06:26;;;;;;;5.32;2.25;;;18.60;99.90;;;;;;4150604;28;20216;-73
2022/10/19 07:08:31;;;;;;;7.82;2.05;;;18.70;99.90;;;;;;4145351;28;20323;-73
2022/10/19 07:10:33;;;;;;;4.50;1.92;;;18.70;99.90;;;;;;4144631;28;20233;-74
2022/10/19 07:12:35;;;;;;;4.03;1.77;;;18.80;99.90;;;;;;4144203;28;20815;-75
2022/10/19 07:14:39;;;;;;;3.30;1.63;;;18.90;99.90;;;;;;4140666;28;20229;-75
2022/10/19 07:16:41;;;;;;;4.68;2.05;;;18.90;99.90;;;;;;4136354;28;20277;-75
2022/10/19 07:18:44;;;;;;;3.65;1.92;;;19.00;99.90;;;;;;4145544;28;20216;-74
2022/10/19 07:20:54;;;;;;;3.65;1.67;;;19.00;99.90;;;;;;4136236;28;20294;-74
2022/10/19 07:22:57;;;;;;;3.65;1.80;;;19.10;99.90;;;;;;4137097;28;20221;-74
2022/10/19 07:25:00;;;;;;;3.72;1.90;;;19.10;99.90;;;;;;4146390;28;20279;-75
2022/10/19 07:27:03;;;;;;;4.70;1.92;;;19.20;99.90;;;;;;4143631;28;20311;-72
2022/10/19 07:29:05;;;;;;;4.80;2.22;;;19.20;99.90;;;;;;4145520;28;20751;-75
2022/10/19 07:31:12;;;;;;;3.72;2.15;;;19.30;99.90;;;;;;4139229;28;20212;-74
2022/10/19 07:33:15;;;;;;;6.65;2.10;;;19.40;99.90;;;;;;4140137;28;20260;-75
2022/10/19 07:35:17;;;;;;;3.75;1.67;;;19.50;99.90;;;;;;4140517;28;20279;-76
2022/10/19 07:37:19;;;;;;;2.97;1.67;;;19.50;99.90;;;;;;4146999;28;20286;-74
2022/10/19 07:39:22;;;;;;;3.50;2.00;;;19.60;99.90;;;;;;4153137;28;20213;-76
2022/10/19 07:41:25;;;;;;;3.65;1.88;;;19.60;99.90;;;;;;4146477;28;20637;-75
2022/10/19 07:43:27;;;;;;;6.05;2.30;;;19.60;99.90;;;;;;4139190;28;20592;-74
2022/10/19 07:45:30;;;;;;;3.55;1.90;;;19.60;99.90;;;;;;4143072;28;20213;-75
2022/10/19 07:47:34;;;;;;;6.30;2.08;;;19.70;99.90;;;;;;4142239;28;20213;-75
2022/10/19 07:49:37;;;;;;;4.13;2.10;;;19.80;99.90;;;;;;4144752;28;20666;-76
2022/10/19 07:51:40;;;;;;;4.88;1.90;;;19.90;99.90;;;;;;4138929;28;20225;-76
2022/10/19 07:53:43;;;;;;;6.50;2.17;;;20.00;99.90;;;;;;4141524;28;20740;-76
2022/10/19 07:55:45;;;;;;;4.97;2.08;;;19.90;99.90;;;;;;4142754;28;20221;-74
2022/10/19 07:57:48;;;;;;;5.20;2.05;;;19.90;99.90;;;;;;4147044;28;20213;-75
2022/10/19 07:59:50;;;;;;;5.35;2.13;;;19.80;99.90;;;;;;4139461;28;20640;-76
2022/10/19 08:01:53;;;;;;;4.88;1.83;;;19.80;99.90;;;;;;4143409;28;20283;-75
2022/10/19 08:03:58;;;;;;;4.97;1.88;;;19.80;99.90;;;;;;4135668;28;20218;-76
2022/10/19 08:06:01;;;;;;;4.00;1.95;;;19.90;99.90;;;;;;4140420;28;20209;-77
2022/10/19 08:08:03;;;;;;;4.95;2.10;;;20.00;99.90;;;;;;4137646;28;20226;-76
2022/10/19 08:10:06;;;;;;;5.55;1.90;;;20.00;99.90;;;;;;4146545;28;21705;-76
2022/10/19 08:12:09;;;;;;;3.58;2.15;;;20.00;99.90;;;;;;4144315;28;20217;-75
2022/10/19 08:14:11;;;;;;;6.03;1.92;;;19.90;99.90;;;;;;4138905;28;24736;-78
2022/10/19 08:16:26;;;;;;;4.47;2.22;;;19.80;99.90;;;;;;4141844;28;20232;-77
2022/10/19 08:18:28;;;;;;;4.97;1.88;;;19.90;99.90;;;;;;4145938;28;20220;-79
2022/10/19 08:20:31;;;;;;;3.80;1.95;;;20.00;99.90;;;;;;4140970;28;20213;-77
2022/10/19 08:22:34;;;;;;;6.22;2.53;;;20.00;99.90;;;;;;4143036;28;20213;-77
2022/10/19 08:24:36;;;;;;;4.65;1.88;;;20.00;99.90;;;;;;4140498;28;20216;-76
2022/10/19 08:26:39;;;;;;;5.45;2.08;;;20.00;99.90;;;;;;4135219;28;20736;-75
2022/10/19 08:28:42;;;;;;;4.18;1.85;;;20.00;99.90;;;;;;4141857;28;20232;-75
2022/10/19 08:30:45;;;;;;;3.97;1.85;;;19.90;99.90;;;;;;4139829;28;20742;-79
2022/10/19 08:32:47;;;;;;;4.97;2.40;;;20.00;99.90;;;;;;4141814;28;20237;-78
2022/10/19 08:34:49;;;;;;;4.47;2.20;;;20.00;99.90;;;;;;4139151;28;20217;-78
2022/10/19 08:36:53;;;;;;;2.47;1.83;;;20.10;99.90;;;;;;4139109;28;20274;-75
2022/10/19 08:38:55;;;;;;;5.55;2.28;;;20.10;99.90;;;;;;4140592;28;20225;-75
2022/10/19 08:41:03;;;;;;;4.72;2.00;;;20.20;99.90;;;;;;4142217;28;20229;-74
2022/10/19 08:43:14;;;;;;;2.63;1.70;;;20.20;99.90;;;;;;4137954;28;20220;-76
2022/10/19 08:45:36;;;;;;;6.13;2.35;;;20.10;99.90;;;;;;4138550;28;20216;-75
2022/10/19 08:47:53;;;;;;;5.47;2.28;;;20.20;99.90;;;;;;4123437;28;20259;-73
2022/10/19 08:49:55;;;;;;;5.13;2.05;;;20.50;99.90;;;;;;4141582;28;20275;-73
2022/10/19 08:52:04;;;;;;;4.90;2.30;;;20.80;99.90;;;;;;4146153;28;20208;-73
2022/10/19 08:54:12;;;;;;;7.18;2.13;;;20.90;99.90;;;;;;4142568;28;20673;-72
2022/10/19 08:56:21;;;;;;;5.10;2.13;;;21.00;99.90;;;;;;4140671;28;20611;-73
2022/10/19 08:58:35;;;;;;;5.30;2.00;;;21.00;99.90;;;;;;4140499;28;20259;-74
2022/10/19 09:00:43;;;;;;;3.40;2.20;;;21.00;99.90;;;;;;4142490;28;20291;-74
2022/10/19 09:02:56;;;;;;;6.10;2.30;;;21.10;99.90;;;;;;4140316;28;20931;-73
2022/10/19 09:05:07;;;;;;;2.78;1.88;;;21.10;99.90;;;;;;4131079;28;20267;-75
2022/10/19 09:07:23;;;;;;;4.82;1.98;;;21.40;99.90;;;;;;4141960;28;20295;-75
2022/10/19 09:09:25;;;;;;;3.80;1.92;;;21.40;99.90;;;;;;4137585;28;20535;-77
2022/10/19 09:11:31;;;;;;;3.72;2.17;;;21.30;99.90;;;;;;4141671;28;20213;-74
2022/10/19 09:13:37;;;;;;;4.05;2.25;;;21.30;99.90;;;;;;4143564;28;20247;-75
2022/10/19 09:15:41;;;;;;;5.88;1.83;;;21.40;99.90;;;;;;4143137;28;20603;-75
2022/10/19 09:17:44;;;;;;;5.60;2.20;;;21.40;99.90;;;;;;4140851;28;20213;-75
2022/10/19 09:19:46;;;;;;;3.55;2.00;;;21.50;99.90;;;;;;4140688;28;20221;-76
2022/10/19 09:21:53;;;;;;;6.05;2.00;;;21.50;99.90;;;;;;4136287;28;20648;-76
2022/10/19 09:24:04;;;;;;;6.40;2.35;;;21.20;99.90;;;;;;4140910;28;20378;-75
2022/10/19 09:26:13;;;;;;;6.13;2.70;;;21.00;99.90;;;;;;4141282;28;20217;-75
2022/10/19 09:28:29;;;;;;;8.68;2.15;;;20.90;99.90;;;;;;4139916;28;20234;-76
2022/10/19 09:30:36;;;;;;;5.95;2.28;;;20.90;99.90;;;;;;4139539;28;20210;-75
2022/10/19 09:32:40;;;;;;;4.65;2.38;;;20.90;99.90;;;;;;4139748;28;20255;-74
2022/10/19 09:34:46;;;;;;;3.30;1.70;;;20.90;99.90;;;;;;4140784;28;20279;-75
2022/10/19 09:36:52;;;;;;;4.70;2.10;;;20.90;99.90;;;;;;4142274;28;20315;-73
2022/10/19 09:38:55;;;;;;;5.50;2.33;;;20.90;99.90;;;;;;4142012;28;20229;-72
2022/10/19 09:40:59;;;;;;;4.00;2.30;;;20.90;99.90;;;;;;4137463;28;20272;-74
2022/10/19 09:43:17;;;;;;;5.97;2.58;;;20.90;99.90;;;;;;4139007;28;20263;-74
2022/10/19 09:45:31;;;;;;;4.50;1.95;;;20.70;99.90;;;;;;4142719;28;20630;-76
2022/10/19 09:47:35;;;;;;;2.92;2.10;;;20.80;99.90;;;;;;4138057;28;20217;-75
2022/10/19 09:49:42;;;;;;;5.10;2.17;;;20.80;99.90;;;;;;4135402;28;20213;-73
2022/10/19 09:51:50;;;;;;;5.10;1.90;;;20.80;99.90;;;;;;4141547;28;20270;-73
2022/10/19 09:53:55;;;;;;;6.30;2.30;;;20.90;99.90;;;;;;4140601;28;20271;-73
2022/10/19 09:56:06;;;;;;;5.93;2.20;;;20.80;99.90;;;;;;4141877;28;20723;-74
2022/10/19 09:58:17;;;;;;;5.80;2.20;;;20.80;99.90;;;;;;4144300;28;20247;-74
2022/10/19 10:00:22;;;;;;;4.40;2.03;;;20.90;99.90;;;;;;4140856;28;20728;-74
2022/10/19 10:02:31;;;;;;;3.10;1.60;;;20.80;99.90;;;;;;4143237;28;20319;-74
2022/10/19 10:04:35;;;;;;;3.40;2.00;;;20.80;99.90;;;;;;4138454;28;20263;-73
2022/10/19 10:06:40;;;;;;;4.03;1.85;;;20.80;99.90;;;;;;4139766;28;20283;-74
2022/10/19 10:08:47;;;;;;;3.22;2.00;;;20.80;99.90;;;;;;4143346;28;20283;-74
2022/10/19 10:10:57;;;;;;;4.32;1.60;;;20.80;99.90;;;;;;4139011;28;20221;-74
2022/10/19 10:13:01;;;;;;;5.22;2.42;;;20.80;99.90;;;;;;4138293;28;20282;-74
2022/10/19 10:15:07;;;;;;;5.13;2.20;;;20.90;99.90;;;;;;4140578;28;20260;-73
2022/10/19 10:17:16;;;;;;;4.43;2.03;;;20.80;99.90;;;;;;4143028;28;20205;-73
2022/10/19 10:19:18;;;;;;;5.47;2.22;;;20.90;99.90;;;;;;4142819;28;20220;-74
2022/10/19 10:21:22;;;;;;;5.53;2.22;;;20.90;99.90;;;;;;4136850;28;20225;-75
2022/10/19 10:23:26;;;;;;;3.22;1.83;;;20.90;99.90;;;;;;4128154;28;20217;-74
2022/10/19 10:25:31;;;;;;;4.72;2.25;;;21.00;99.90;;;;;;4138098;28;20897;-74
2022/10/19 10:27:36;;;;;;;3.55;1.92;;;21.00;99.90;;;;;;4141807;28;20205;-74
2022/10/19 10:29:39;;;;;;;5.68;2.50;;;21.00;99.90;;;;;;4141101;28;20221;-73
2022/10/19 10:31:42;;;;;;;3.65;1.92;;;21.00;99.90;;;;;;4141293;28;20267;-73
2022/10/19 10:33:54;;;;;;;4.55;2.30;;;20.90;99.90;;;;;;4135379;28;20267;-73
2022/10/19 10:36:01;;;;;;;4.88;2.03;;;20.90;99.90;;;;;;4141751;28;20252;-75
2022/10/19 10:38:09;;;;;;;4.05;2.00;;;20.90;99.90;;;;;;4142142;28;20212;-73
2022/10/19 10:40:21;;;;;;;2.92;2.17;;;20.90;99.90;;;;;;4138536;28;20213;-73
2022/10/19 10:42:29;;;;;;;5.47;2.40;;;21.00;99.90;;;;;;4141344;28;20283;-72
2022/10/19 10:44:35;;;;;;;5.53;2.17;;;21.10;99.90;;;;;;4141104;28;20283;-72
2022/10/19 10:46:45;;;;;;;2.83;1.80;;;21.00;99.90;;;;;;4142166;28;20716;-73
2022/10/19 10:48:55;;;;;;;7.80;2.45;;;21.00;99.90;;;;;;4141343;28;20232;-73
2022/10/19 10:50:59;;;;;;;5.45;2.30;;;21.00;99.90;;;;;;4138809;28;20217;-73